createdAt,value
2018-06-10T00:00:45.862Z,27.21
2018-06-10T00:01:55.798Z,27.22
2018-06-10T00:03:05.454Z,27.14
2018-06-10T00:04:14.375Z,27.19
2018-06-10T00:05:23.799Z,27.14
2018-06-10T00:06:33.737Z,27.14
2018-06-10T00:07:43.473Z,27.21
2018-06-10T00:08:53.159Z,27.13
2018-06-10T00:10:02.343Z,27.19
2018-06-10T00:11:11.250Z,27.17
2018-06-10T00:12:20.461Z,27.13
2018-06-10T00:13:29.634Z,27.12
2018-06-10T00:14:39.334Z,27.18
2018-06-10T00:15:48.575Z,27.19
2018-06-10T00:16:58.305Z,27.13
2018-06-10T00:18:07.222Z,27.14
2018-06-10T00:19:16.393Z,27.17
2018-06-10T00:20:25.543Z,27.14
2018-06-10T00:21:34.713Z,27.1
2018-06-10T00:22:44.140Z,27.1
2018-06-10T00:23:53.318Z,27.17
2018-06-10T00:25:03.042Z,27.09
2018-06-10T00:26:12.234Z,27.13
2018-06-10T00:27:21.951Z,27.13
2018-06-10T00:28:31.647Z,27.13
2018-06-10T00:29:41.396Z,27.09
2018-06-10T00:30:50.293Z,27.1
2018-06-10T00:31:59.561Z,27.12
2018-06-10T00:33:08.989Z,27.1
2018-06-10T00:34:18.417Z,27.09
2018-06-10T00:35:28.106Z,27.09
2018-06-10T00:36:37.047Z,27.14
2018-06-10T00:37:46.187Z,27.13
2018-06-10T00:38:56.130Z,27.12
2018-06-10T00:40:05.045Z,27.06
2018-06-10T00:41:13.959Z,27.07
2018-06-10T00:42:23.685Z,27.07
2018-06-10T00:43:33.359Z,27.13
2018-06-10T00:44:43.280Z,27.09
2018-06-10T00:45:52.957Z,27.1
2018-06-10T00:47:02.386Z,27.07
2018-06-10T00:48:11.814Z,27.18
2018-06-10T00:49:21.285Z,27.04
2018-06-10T00:50:30.457Z,27.12
2018-06-10T00:51:39.907Z,27.07
2018-06-10T00:52:49.079Z,27.06
2018-06-10T00:53:58.254Z,27.09
2018-06-10T00:55:07.934Z,27.06
2018-06-10T00:56:17.093Z,27.1
2018-06-10T00:57:26.854Z,27.14
2018-06-10T00:58:36.285Z,27.12
2018-06-10T00:59:45.916Z,27.12
2018-06-10T01:00:55.469Z,27.07
2018-06-10T01:02:04.904Z,27.1
2018-06-10T01:03:14.120Z,27.14
2018-06-10T01:04:23.304Z,27.1
2018-06-10T01:05:32.198Z,27.07
2018-06-10T01:06:41.886Z,27.03
2018-06-10T01:07:51.417Z,27.07
2018-06-10T01:09:01.252Z,27.14
2018-06-10T01:10:11.426Z,27.1
2018-06-10T01:11:21.112Z,27.03
2018-06-10T01:12:30.263Z,27.06
2018-06-10T01:13:39.935Z,27.04
2018-06-10T01:14:49.601Z,27.04
2018-06-10T01:15:58.806Z,27.12
2018-06-10T01:17:08.240Z,27.1
2018-06-10T01:18:18.195Z,27.07
2018-06-10T01:19:27.638Z,27.07
2018-06-10T01:20:37.066Z,27.09
2018-06-10T01:21:46.511Z,27.06
2018-06-10T01:22:56.448Z,27.07
2018-06-10T01:24:05.623Z,27.13
2018-06-10T01:25:15.303Z,27.09
2018-06-10T01:26:24.731Z,27.09
2018-06-10T01:27:33.885Z,27.03
2018-06-10T01:28:43.304Z,27.14
2018-06-10T01:29:53.240Z,27.1
2018-06-10T01:31:02.150Z,27.06
2018-06-10T01:32:11.049Z,27.03
2018-06-10T01:33:20.727Z,27.02
2018-06-10T01:34:30.161Z,27.12
2018-06-10T01:35:40.094Z,27.09
2018-06-10T01:36:50.016Z,27.1
2018-06-10T01:37:58.650Z,27.03
2018-06-10T01:39:07.826Z,27.1
2018-06-10T01:40:17.494Z,27.09
2018-06-10T01:41:26.932Z,27.03
2018-06-10T01:42:35.857Z,27.09
2018-06-10T01:43:45.327Z,27.1
2018-06-10T01:44:54.231Z,27.02
2018-06-10T01:46:03.403Z,27.1
2018-06-10T01:47:12.305Z,27.04
2018-06-10T01:48:21.980Z,27.03
2018-06-10T01:49:31.737Z,27.03
2018-06-10T01:50:41.163Z,27.12
2018-06-10T01:51:50.576Z,27.03
2018-06-10T01:53:00.269Z,27.07
2018-06-10T01:54:09.178Z,26.99
2018-06-10T01:55:18.601Z,27.04
2018-06-10T01:56:28.540Z,27.07
2018-06-10T01:57:37.442Z,27.03
2018-06-10T01:58:47.377Z,27.06
2018-06-10T01:59:56.805Z,27.06
2018-06-10T02:01:06.485Z,27.12
2018-06-10T02:02:15.639Z,27
2018-06-10T02:03:25.049Z,27.04
2018-06-10T02:04:34.465Z,27.07
2018-06-10T02:05:43.408Z,27
2018-06-10T02:06:53.095Z,26.99
2018-06-10T02:08:02.758Z,27.02
2018-06-10T02:09:11.666Z,27.09
2018-06-10T02:10:21.350Z,27.04
2018-06-10T02:11:31.334Z,26.99
2018-06-10T02:12:40.763Z,27.02
2018-06-10T02:13:50.189Z,27.03
2018-06-10T02:14:59.593Z,27.04
2018-06-10T02:16:09.290Z,26.95
2018-06-10T02:17:18.970Z,27.02
2018-06-10T02:18:27.717Z,27.02
2018-06-10T02:19:37.422Z,27
2018-06-10T02:20:47.341Z,27.03
2018-06-10T02:21:56.753Z,27.02
2018-06-10T02:23:06.174Z,26.97
2018-06-10T02:24:15.093Z,26.97
2018-06-10T02:25:24.522Z,27.02
2018-06-10T02:26:34.479Z,26.99
2018-06-10T02:27:43.655Z,27.03
2018-06-10T02:28:53.574Z,27
2018-06-10T02:30:02.769Z,26.95
2018-06-10T02:31:12.197Z,26.95
2018-06-10T02:32:21.606Z,27
2018-06-10T02:33:31.022Z,26.97
2018-06-10T02:34:40.502Z,27.03
2018-06-10T02:35:50.188Z,27
2018-06-10T02:36:59.348Z,26.92
2018-06-10T02:38:09.324Z,27.02
2018-06-10T02:39:18.754Z,27
2018-06-10T02:40:28.439Z,27
2018-06-10T02:41:37.630Z,26.99
2018-06-10T02:42:47.564Z,26.95
2018-06-10T02:43:57.286Z,27.04
2018-06-10T02:45:06.221Z,27.02
2018-06-10T02:46:15.393Z,26.92
2018-06-10T02:47:24.829Z,26.95
2018-06-10T02:48:34.284Z,26.97
2018-06-10T02:49:44.217Z,26.94
2018-06-10T02:50:53.368Z,26.94
2018-06-10T02:52:02.794Z,26.94
2018-06-10T02:53:12.733Z,27
2018-06-10T02:54:21.907Z,26.94
2018-06-10T02:55:31.869Z,26.95
2018-06-10T02:56:41.322Z,26.95
2018-06-10T02:57:50.748Z,26.94
2018-06-10T02:59:00.689Z,26.92
2018-06-10T03:00:10.137Z,26.97
2018-06-10T03:01:19.563Z,26.91
2018-06-10T03:02:28.998Z,26.92
2018-06-10T03:03:38.425Z,26.87
2018-06-10T03:04:47.317Z,27
2018-06-10T03:05:56.490Z,26.89
2018-06-10T03:07:05.635Z,26.91
2018-06-10T03:08:15.577Z,26.88
2018-06-10T03:09:25.030Z,26.92
2018-06-10T03:10:34.450Z,26.89
2018-06-10T03:11:44.134Z,26.81
2018-06-10T03:12:53.307Z,26.89
2018-06-10T03:14:02.993Z,26.87
2018-06-10T03:15:12.429Z,26.81
2018-06-10T03:16:22.130Z,26.85
2018-06-10T03:17:31.811Z,26.84
2018-06-10T03:18:41.763Z,26.81
2018-06-10T03:19:50.919Z,26.82
2018-06-10T03:21:00.867Z,26.87
2018-06-10T03:22:10.295Z,26.84
2018-06-10T03:23:19.717Z,26.85
2018-06-10T03:24:29.387Z,26.81
2018-06-10T03:25:39.324Z,26.87
2018-06-10T03:26:48.984Z,26.85
2018-06-10T03:27:58.171Z,26.82
2018-06-10T03:29:07.609Z,26.88
2018-06-10T03:30:17.544Z,26.84
2018-06-10T03:31:27.219Z,26.87
2018-06-10T03:32:36.908Z,26.92
2018-06-10T03:33:46.080Z,26.84
2018-06-10T03:34:55.766Z,26.88
2018-06-10T03:36:05.186Z,26.84
2018-06-10T03:37:14.595Z,26.88
2018-06-10T03:38:23.248Z,26.85
2018-06-10T03:39:32.413Z,26.85
2018-06-10T03:40:41.838Z,26.85
2018-06-10T03:41:51.270Z,26.89
2018-06-10T03:43:00.432Z,26.87
2018-06-10T03:44:09.355Z,26.85
2018-06-10T03:45:18.768Z,26.88
2018-06-10T03:46:28.173Z,26.84
2018-06-10T03:47:37.607Z,26.85
2018-06-10T03:48:47.291Z,26.89
2018-06-10T03:49:56.722Z,26.88
2018-06-10T03:51:06.191Z,26.84
2018-06-10T03:52:15.915Z,26.81
2018-06-10T03:53:25.073Z,26.82
2018-06-10T03:54:35.009Z,26.82
2018-06-10T03:55:44.183Z,26.81
2018-06-10T03:56:53.612Z,26.85
2018-06-10T03:58:02.777Z,26.88
2018-06-10T03:59:12.703Z,26.88
2018-06-10T04:00:22.372Z,26.82
2018-06-10T04:01:31.798Z,26.87
2018-06-10T04:02:41.477Z,26.77
2018-06-10T04:03:50.637Z,26.8
2018-06-10T04:04:59.553Z,26.8
2018-06-10T04:06:08.974Z,26.84
2018-06-10T04:07:18.387Z,26.81
2018-06-10T04:08:28.071Z,26.82
2018-06-10T04:09:37.494Z,26.8
2018-06-10T04:10:47.170Z,26.87
2018-06-10T04:11:56.614Z,26.87
2018-06-10T04:13:06.048Z,26.75
2018-06-10T04:14:14.944Z,26.76
2018-06-10T04:15:24.107Z,26.8
2018-06-10T04:16:33.793Z,26.77
2018-06-10T04:17:43.222Z,26.77
2018-06-10T04:18:51.872Z,26.81
2018-06-10T04:20:01.386Z,26.75
2018-06-10T04:21:10.539Z,26.81
2018-06-10T04:22:19.979Z,26.76
2018-06-10T04:23:29.399Z,26.75
2018-06-10T04:24:39.098Z,26.82
2018-06-10T04:25:48.791Z,26.82
2018-06-10T04:26:57.984Z,26.76
2018-06-10T04:28:07.396Z,26.73
2018-06-10T04:29:16.845Z,26.73
2018-06-10T04:30:26.268Z,26.76
2018-06-10T04:31:35.946Z,26.77
2018-06-10T04:32:45.104Z,26.8
2018-06-10T04:33:54.264Z,26.73
2018-06-10T04:35:03.447Z,26.8
2018-06-10T04:36:12.855Z,26.82
2018-06-10T04:37:22.258Z,26.81
2018-06-10T04:38:31.929Z,26.76
2018-06-10T04:39:41.358Z,26.8
2018-06-10T04:40:50.589Z,26.8
2018-06-10T04:41:59.745Z,26.72
2018-06-10T04:43:09.185Z,26.76
2018-06-10T04:44:18.874Z,26.73
2018-06-10T04:45:28.045Z,26.75
2018-06-10T04:46:37.724Z,26.8
2018-06-10T04:47:46.628Z,26.8
2018-06-10T04:48:56.359Z,26.73
2018-06-10T04:50:05.799Z,26.81
2018-06-10T04:51:14.983Z,26.75
2018-06-10T04:52:24.160Z,26.76
2018-06-10T04:53:33.338Z,26.81
2018-06-10T04:54:42.775Z,26.8
2018-06-10T04:55:51.937Z,26.75
2018-06-10T04:57:01.106Z,26.8
2018-06-10T04:58:10.282Z,26.76
2018-06-10T04:59:19.695Z,26.8
2018-06-10T05:00:29.372Z,26.81
2018-06-10T05:01:38.795Z,26.77
2018-06-10T05:02:48.471Z,26.76
2018-06-10T05:03:57.903Z,26.77
2018-06-10T05:05:07.831Z,26.77
2018-06-10T05:06:16.808Z,26.84
2018-06-10T05:07:26.900Z,26.75
2018-06-10T05:08:35.807Z,26.76
2018-06-10T05:09:45.471Z,26.77
2018-06-10T05:10:54.630Z,26.73
2018-06-10T05:12:03.537Z,26.82
2018-06-10T05:13:12.702Z,26.77
2018-06-10T05:14:22.130Z,26.81
2018-06-10T05:15:31.577Z,26.8
2018-06-10T05:16:40.214Z,26.76
2018-06-10T05:17:49.622Z,26.76
2018-06-10T05:18:58.513Z,26.82
2018-06-10T05:20:08.509Z,26.82
2018-06-10T05:21:18.398Z,26.75
2018-06-10T05:22:27.823Z,26.75
2018-06-10T05:23:37.487Z,26.81
2018-06-10T05:24:46.908Z,26.81
2018-06-10T05:25:57.286Z,26.8
2018-06-10T05:27:06.715Z,26.82
2018-06-10T05:28:16.142Z,26.67
2018-06-10T05:29:25.306Z,26.81
2018-06-10T05:30:34.735Z,26.8
2018-06-10T05:31:44.421Z,26.8
2018-06-10T05:32:53.858Z,26.82
2018-06-10T05:34:03.586Z,26.76
2018-06-10T05:35:12.483Z,26.75
2018-06-10T05:36:21.648Z,26.75
2018-06-10T05:37:31.069Z,26.81
2018-06-10T05:38:40.506Z,26.76
2018-06-10T05:39:49.678Z,26.76
2018-06-10T05:40:59.155Z,26.77
2018-06-10T05:42:08.068Z,26.76
2018-06-10T05:43:17.748Z,26.75
2018-06-10T05:44:27.170Z,26.8
2018-06-10T05:45:36.620Z,26.77
2018-06-10T05:46:46.314Z,26.81
2018-06-10T05:47:55.743Z,26.82
2018-06-10T05:49:04.659Z,26.75
2018-06-10T05:50:14.328Z,26.76
2018-06-10T05:51:24.209Z,26.81
2018-06-10T05:52:33.356Z,26.77
2018-06-10T05:53:42.547Z,26.75
2018-06-10T05:54:52.009Z,26.8
2018-06-10T05:56:01.442Z,26.8
2018-06-10T05:57:10.862Z,26.77
2018-06-10T05:58:19.832Z,26.8
2018-06-10T05:59:29.264Z,26.77
2018-06-10T06:00:38.687Z,26.72
2018-06-10T06:01:47.601Z,26.77
2018-06-10T06:02:57.269Z,26.73
2018-06-10T06:04:06.957Z,26.81
2018-06-10T06:05:17.068Z,26.8
2018-06-10T06:06:26.493Z,26.8
2018-06-10T06:07:35.661Z,26.76
2018-06-10T06:08:45.118Z,26.75
2018-06-10T06:09:55.049Z,26.8
2018-06-10T06:11:04.215Z,26.77
2018-06-10T06:12:13.635Z,26.8
2018-06-10T06:13:23.350Z,26.8
2018-06-10T06:14:33.581Z,26.75
2018-06-10T06:15:42.745Z,26.76
2018-06-10T06:16:51.915Z,26.8
2018-06-10T06:18:01.326Z,26.73
2018-06-10T06:19:10.764Z,26.85
2018-06-10T06:20:19.975Z,26.73
2018-06-10T06:21:29.663Z,26.75
2018-06-10T06:22:38.835Z,26.8
2018-06-10T06:23:48.753Z,26.8
2018-06-10T06:24:58.177Z,26.81
2018-06-10T06:26:07.594Z,26.73
2018-06-10T06:27:16.771Z,26.77
2018-06-10T06:28:26.280Z,26.85
2018-06-10T06:29:35.446Z,26.85
2018-06-10T06:30:44.873Z,26.81
2018-06-10T06:31:54.532Z,26.76
2018-06-10T06:33:04.509Z,26.85
2018-06-10T06:34:13.919Z,26.81
2018-06-10T06:35:23.902Z,26.8
2018-06-10T06:36:32.835Z,26.81
2018-06-10T06:37:41.997Z,26.8
2018-06-10T06:38:51.690Z,26.73
2018-06-10T06:40:01.367Z,26.73
2018-06-10T06:41:10.521Z,26.82
2018-06-10T06:42:19.951Z,26.77
2018-06-10T06:43:29.641Z,26.81
2018-06-10T06:44:39.302Z,26.82
2018-06-10T06:45:48.468Z,26.76
2018-06-10T06:46:57.892Z,26.82
2018-06-10T06:48:07.365Z,26.75
2018-06-10T06:49:16.789Z,26.8
2018-06-10T06:50:26.243Z,26.75
2018-06-10T06:51:35.936Z,26.75
2018-06-10T06:52:44.854Z,26.8
2018-06-10T06:53:53.761Z,26.75
2018-06-10T06:55:02.953Z,26.85
2018-06-10T06:56:12.892Z,26.77
2018-06-10T06:57:22.315Z,26.85
2018-06-10T06:58:31.526Z,26.75
2018-06-10T06:59:40.951Z,26.84
2018-06-10T07:00:50.630Z,26.84
2018-06-10T07:02:00.074Z,26.76
2018-06-10T07:03:09.492Z,26.85
2018-06-10T07:04:19.281Z,26.72
2018-06-10T07:05:29.044Z,26.82
2018-06-10T07:06:38.999Z,26.8
2018-06-10T07:07:48.224Z,26.8
2018-06-10T07:08:57.912Z,26.85
2018-06-10T07:10:07.343Z,26.75
2018-06-10T07:11:16.748Z,26.88
2018-06-10T07:12:26.176Z,26.89
2018-06-10T07:13:35.343Z,26.77
2018-06-10T07:14:44.558Z,26.87
2018-06-10T07:15:53.727Z,26.73
2018-06-10T07:17:02.900Z,26.77
2018-06-10T07:18:12.314Z,26.77
2018-06-10T07:19:21.471Z,26.81
2018-06-10T07:20:30.908Z,26.87
2018-06-10T07:21:40.856Z,26.84
2018-06-10T07:22:50.550Z,26.84
2018-06-10T07:23:59.717Z,26.82
2018-06-10T07:25:09.398Z,26.77
2018-06-10T07:26:18.564Z,26.81
2018-06-10T07:27:28.248Z,26.85
2018-06-10T07:28:37.453Z,26.87
2018-06-10T07:29:46.880Z,26.87
2018-06-10T07:30:56.310Z,26.73
2018-06-10T07:32:06.024Z,26.75
2018-06-10T07:33:15.718Z,26.76
2018-06-10T07:34:25.683Z,26.82
2018-06-10T07:35:35.380Z,26.76
2018-06-10T07:36:44.808Z,26.91
2018-06-10T07:37:54.750Z,26.81
2018-06-10T07:39:04.688Z,26.84
2018-06-10T07:40:14.109Z,26.81
2018-06-10T07:41:23.285Z,26.81
2018-06-10T07:42:33.201Z,26.87
2018-06-10T07:43:42.879Z,26.81
2018-06-10T07:44:52.547Z,26.8
2018-06-10T07:46:02.478Z,26.8
2018-06-10T07:47:12.402Z,26.85
2018-06-10T07:48:22.533Z,26.73
2018-06-10T07:49:32.439Z,26.88
2018-06-10T07:50:42.175Z,26.75
2018-06-10T07:51:51.645Z,26.88
2018-06-10T07:53:01.581Z,26.77
2018-06-10T07:54:10.989Z,26.87
2018-06-10T07:55:20.407Z,26.8
2018-06-10T07:56:29.817Z,26.88
2018-06-10T07:57:39.497Z,26.81
2018-06-10T07:58:49.186Z,26.85
2018-06-10T07:59:58.353Z,26.81
2018-06-10T08:01:08.147Z,26.8
2018-06-10T08:02:17.590Z,26.82
2018-06-10T08:03:26.521Z,26.87
2018-06-10T08:04:35.162Z,26.87
2018-06-10T08:05:45.108Z,26.87
2018-06-10T08:06:54.281Z,26.87
2018-06-10T08:08:03.736Z,26.87
2018-06-10T08:09:13.435Z,26.89
2018-06-10T08:10:22.358Z,26.82
2018-06-10T08:11:32.035Z,26.85
2018-06-10T08:12:41.754Z,26.89
2018-06-10T08:13:50.933Z,26.82
2018-06-10T08:14:59.912Z,26.87
2018-06-10T08:16:08.857Z,26.85
2018-06-10T08:17:18.564Z,26.88
2018-06-10T08:18:27.989Z,26.82
2018-06-10T08:19:37.674Z,26.82
2018-06-10T08:20:47.101Z,26.87
2018-06-10T08:21:56.523Z,26.82
2018-06-10T08:23:06.195Z,26.84
2018-06-10T08:24:15.866Z,26.81
2018-06-10T08:25:25.811Z,26.88
2018-06-10T08:26:35.632Z,26.85
2018-06-10T08:27:45.031Z,26.81
2018-06-10T08:28:54.706Z,26.85
2018-06-10T08:30:04.401Z,26.87
2018-06-10T08:31:13.621Z,26.85
2018-06-10T08:32:23.297Z,26.82
2018-06-10T08:33:32.461Z,26.81
2018-06-10T08:34:42.645Z,26.81
2018-06-10T08:35:51.785Z,26.77
2018-06-10T08:37:01.478Z,26.88
2018-06-10T08:38:11.419Z,26.8
2018-06-10T08:39:20.843Z,26.87
2018-06-10T08:40:30.517Z,26.82
2018-06-10T08:41:40.193Z,26.81
2018-06-10T08:42:49.860Z,26.77
2018-06-10T08:43:59.451Z,26.77
2018-06-10T08:45:09.096Z,26.75
2018-06-10T08:46:18.524Z,26.85
2018-06-10T08:47:27.939Z,26.82
2018-06-10T08:48:37.358Z,26.89
2018-06-10T08:49:46.814Z,26.87
2018-06-10T08:50:56.776Z,26.8
2018-06-10T08:52:06.513Z,26.75
2018-06-10T08:53:16.183Z,26.75
2018-06-10T08:54:25.346Z,26.81
2018-06-10T08:55:34.775Z,26.88
2018-06-10T08:56:44.208Z,26.84
2018-06-10T08:57:53.884Z,26.81
2018-06-10T08:59:03.344Z,26.81
2018-06-10T09:00:12.761Z,26.77
2018-06-10T09:01:22.443Z,26.81
2018-06-10T09:02:31.873Z,26.88
2018-06-10T09:03:41.417Z,26.88
2018-06-10T09:04:51.121Z,26.85
2018-06-10T09:06:00.287Z,26.76
2018-06-10T09:07:09.494Z,26.89
2018-06-10T09:08:19.042Z,26.88
2018-06-10T09:09:28.473Z,26.81
2018-06-10T09:10:37.395Z,26.84
2018-06-10T09:11:46.630Z,26.8
2018-06-10T09:12:56.052Z,26.82
2018-06-10T09:14:06.122Z,26.81
2018-06-10T09:15:15.784Z,26.84
2018-06-10T09:16:26.726Z,26.84
2018-06-10T09:17:36.391Z,26.77
2018-06-10T09:18:45.539Z,26.84
2018-06-10T09:19:54.704Z,26.89
2018-06-10T09:21:04.141Z,26.81
2018-06-10T09:22:13.937Z,26.84
2018-06-10T09:23:23.391Z,26.84
2018-06-10T09:24:32.811Z,26.87
2018-06-10T09:25:41.986Z,26.84
2018-06-10T09:26:51.214Z,26.85
2018-06-10T09:28:00.378Z,26.87
2018-06-10T09:29:09.798Z,26.87
2018-06-10T09:30:18.933Z,26.77
2018-06-10T09:31:28.542Z,26.84
2018-06-10T09:32:37.962Z,26.85
2018-06-10T09:33:46.652Z,26.81
2018-06-10T09:34:55.590Z,26.85
2018-06-10T09:36:04.756Z,26.85
2018-06-10T09:37:14.336Z,26.84
2018-06-10T09:38:23.787Z,26.88
2018-06-10T09:39:34.209Z,26.85
2018-06-10T09:40:43.377Z,26.87
2018-06-10T09:41:52.800Z,26.91
2018-06-10T09:43:03.712Z,26.94
2018-06-10T09:44:12.783Z,26.89
2018-06-10T09:45:22.589Z,26.95
2018-06-10T09:46:33.082Z,26.95
2018-06-10T09:47:42.438Z,26.94
2018-06-10T09:48:51.369Z,26.97
2018-06-10T09:50:00.369Z,26.97
2018-06-10T09:51:09.800Z,27.02
2018-06-10T09:52:19.508Z,26.97
2018-06-10T09:53:28.941Z,26.97
2018-06-10T09:54:38.177Z,27.02
2018-06-10T09:55:49.529Z,26.97
2018-06-10T09:56:58.724Z,27.03
2018-06-10T09:58:07.988Z,27
2018-06-10T09:59:17.937Z,26.99
2018-06-10T10:00:27.171Z,27.04
2018-06-10T10:01:36.964Z,27.04
2018-06-10T10:02:47.162Z,27.03
2018-06-10T10:03:58.298Z,26.99
2018-06-10T10:05:07.944Z,27.06
2018-06-10T10:06:17.422Z,27.02
2018-06-10T10:07:27.753Z,27.09
2018-06-10T10:08:37.465Z,27.02
2018-06-10T10:09:46.691Z,27.06
2018-06-10T10:10:56.137Z,27.1
2018-06-10T10:12:05.313Z,27.04
2018-06-10T10:13:15.473Z,27.03
2018-06-10T10:14:24.953Z,27.09
2018-06-10T10:15:34.162Z,27.04
2018-06-10T10:16:43.598Z,27.07
2018-06-10T10:17:53.012Z,27.07
2018-06-10T10:19:02.798Z,27.13
2018-06-10T10:20:12.778Z,27.03
2018-06-10T10:21:21.949Z,27.06
2018-06-10T10:22:31.640Z,27.06
2018-06-10T10:23:41.321Z,27.14
2018-06-10T10:24:51.170Z,27.09
2018-06-10T10:26:00.924Z,27.13
2018-06-10T10:27:10.613Z,27.1
2018-06-10T10:28:20.042Z,27.04
2018-06-10T10:29:29.487Z,27.1
2018-06-10T10:30:38.910Z,27.07
2018-06-10T10:31:48.652Z,27.09
2018-06-10T10:32:58.109Z,27.14
2018-06-10T10:34:07.004Z,27.13
2018-06-10T10:35:16.452Z,27.19
2018-06-10T10:36:26.135Z,27.19
2018-06-10T10:37:35.798Z,27.17
2018-06-10T10:38:44.949Z,27.13
2018-06-10T10:39:54.407Z,27.18
2018-06-10T10:41:04.204Z,27.18
2018-06-10T10:42:13.349Z,27.19
2018-06-10T10:43:22.497Z,27.22
2018-06-10T10:44:31.432Z,27.19
2018-06-10T10:45:41.355Z,27.13
2018-06-10T10:46:50.265Z,27.22
2018-06-10T10:47:59.159Z,27.19
2018-06-10T10:49:08.068Z,27.19
2018-06-10T10:50:17.221Z,27.19
2018-06-10T10:51:26.904Z,27.18
2018-06-10T10:52:36.339Z,27.18
2018-06-10T10:53:45.496Z,27.18
2018-06-10T10:54:54.852Z,27.21
2018-06-10T10:56:04.726Z,27.18
2018-06-10T10:57:14.967Z,27.19
2018-06-10T10:58:24.130Z,27.22
2018-06-10T10:59:33.550Z,27.19
2018-06-10T11:00:42.969Z,27.31
2018-06-10T11:01:51.879Z,27.25
2018-06-10T11:03:01.353Z,27.21
2018-06-10T11:04:11.032Z,27.22
2018-06-10T11:05:20.975Z,27.31
2018-06-10T11:06:30.407Z,27.28
2018-06-10T11:07:39.553Z,27.24
2018-06-10T11:08:49.222Z,27.21
2018-06-10T11:09:58.644Z,27.27
2018-06-10T11:11:08.327Z,27.24
2018-06-10T11:12:17.499Z,27.24
2018-06-10T11:13:27.385Z,27.31
2018-06-10T11:14:36.814Z,27.22
2018-06-10T11:15:46.240Z,27.21
2018-06-10T11:16:55.666Z,27.29
2018-06-10T11:18:04.560Z,27.24
2018-06-10T11:19:14.234Z,27.28
2018-06-10T11:20:23.666Z,27.28
2018-06-10T11:21:33.851Z,27.27
2018-06-10T11:22:43.341Z,27.21
2018-06-10T11:23:53.030Z,27.22
2018-06-10T11:25:02.739Z,27.21
2018-06-10T11:26:12.161Z,27.25
2018-06-10T11:27:21.739Z,27.31
2018-06-10T11:28:31.317Z,27.21
2018-06-10T11:29:41.232Z,27.28
2018-06-10T11:30:50.417Z,27.28
2018-06-10T11:32:00.088Z,27.29
2018-06-10T11:33:09.275Z,27.24
2018-06-10T11:34:18.693Z,27.27
2018-06-10T11:35:28.154Z,27.25
2018-06-10T11:36:37.825Z,27.27
2018-06-10T11:37:47.750Z,27.24
2018-06-10T11:38:57.418Z,27.28
2018-06-10T11:40:06.322Z,27.25
2018-06-10T11:41:15.741Z,27.18
2018-06-10T11:42:25.068Z,27.24
2018-06-10T11:43:35.034Z,27.19
2018-06-10T11:44:44.721Z,27.29
2018-06-10T11:45:54.655Z,27.22
2018-06-10T11:47:04.341Z,27.21
2018-06-10T11:48:13.759Z,27.21
2018-06-10T11:49:22.905Z,27.22
2018-06-10T11:50:32.579Z,27.18
2018-06-10T11:51:41.735Z,27.19
2018-06-10T11:52:51.418Z,27.21
2018-06-10T11:54:00.655Z,27.17
2018-06-10T11:55:09.857Z,27.17
2018-06-10T11:56:19.285Z,27.17
2018-06-10T11:57:28.958Z,27.18
2018-06-10T11:58:38.534Z,27.13
2018-06-10T11:59:47.444Z,27.21
2018-06-10T12:00:56.857Z,27.18
2018-06-10T12:02:06.416Z,27.22
2018-06-10T12:03:15.845Z,27.18
2018-06-10T12:04:25.268Z,27.17
2018-06-10T12:05:34.688Z,27.19
2018-06-10T12:06:44.634Z,27.21
2018-06-10T12:07:54.102Z,27.21
2018-06-10T12:09:03.386Z,27.14
2018-06-10T12:10:13.068Z,27.22
2018-06-10T12:11:22.748Z,27.21
2018-06-10T12:12:32.165Z,27.12
2018-06-10T12:13:42.223Z,27.18
2018-06-10T12:14:51.678Z,27.13
2018-06-10T12:16:01.083Z,27.19
2018-06-10T12:17:10.894Z,27.19
2018-06-10T12:18:20.561Z,27.21
2018-06-10T12:19:30.237Z,27.19
2018-06-10T12:20:39.396Z,27.18
2018-06-10T12:21:48.546Z,27.22
2018-06-10T12:22:58.308Z,27.12
2018-06-10T12:24:07.611Z,27.24
2018-06-10T12:25:17.575Z,27.21
2018-06-10T12:26:27.283Z,27.19
2018-06-10T12:27:36.715Z,27.19
2018-06-10T12:28:46.139Z,27.18
2018-06-10T12:29:55.565Z,27.17
2018-06-10T12:31:05.035Z,27.13
2018-06-10T12:32:14.265Z,27.13
2018-06-10T12:33:24.206Z,27.17
2018-06-10T12:34:33.908Z,27.13
2018-06-10T12:35:43.063Z,27.13
2018-06-10T12:36:52.726Z,27.18
2018-06-10T12:38:02.151Z,27.18
2018-06-10T12:39:11.573Z,27.13
2018-06-10T12:40:20.497Z,27.14
2018-06-10T12:41:30.645Z,27.1
2018-06-10T12:42:39.883Z,27.17
2018-06-10T12:43:49.541Z,27.17
2018-06-10T12:44:58.695Z,27.18
2018-06-10T12:46:08.122Z,27.13
2018-06-10T12:47:17.529Z,27.09
2018-06-10T12:48:26.465Z,27.07
2018-06-10T12:49:35.994Z,27.12
2018-06-10T12:50:45.159Z,27.09
2018-06-10T12:51:53.816Z,27.09
2018-06-10T12:53:02.978Z,27.09
2018-06-10T12:54:12.145Z,27.09
2018-06-10T12:55:21.829Z,27.13
2018-06-10T12:56:31.009Z,27.07
2018-06-10T12:57:40.457Z,27.09
2018-06-10T12:58:50.138Z,27.1
2018-06-10T12:59:59.876Z,27.09
2018-06-10T13:01:09.051Z,27.13
2018-06-10T13:02:18.915Z,27.07
2018-06-10T13:03:28.413Z,27.06
2018-06-10T13:04:37.869Z,27.06
2018-06-10T13:05:47.556Z,27.03
2018-06-10T13:06:57.240Z,27.13
2018-06-10T13:08:06.711Z,27.09
2018-06-10T13:09:15.879Z,26.97
2018-06-10T13:10:25.310Z,27.03
2018-06-10T13:11:35.208Z,27.02
2018-06-10T13:12:44.115Z,27.12
2018-06-10T13:13:53.552Z,27.03
2018-06-10T13:15:02.778Z,27.03
2018-06-10T13:16:11.955Z,26.97
2018-06-10T13:17:21.647Z,27
2018-06-10T13:18:31.082Z,27.09
2018-06-10T13:19:40.508Z,27.03
2018-06-10T13:20:50.007Z,27.09
2018-06-10T13:21:59.218Z,27.04
2018-06-10T13:23:08.417Z,27.06
2018-06-10T13:24:17.834Z,27.07
2018-06-10T13:25:26.999Z,27.07
2018-06-10T13:26:36.159Z,27.06
2018-06-10T13:27:46.040Z,27.1
2018-06-10T13:28:55.186Z,27.06
2018-06-10T13:30:04.126Z,27.09
2018-06-10T13:31:13.578Z,27.13
2018-06-10T13:32:22.740Z,27.14
2018-06-10T13:33:32.419Z,27.17
2018-06-10T13:34:41.579Z,27.12
2018-06-10T13:35:51.337Z,27.1
2018-06-10T13:37:00.790Z,27.14
2018-06-10T13:38:09.707Z,27.18
2018-06-10T13:39:19.129Z,27.18
2018-06-10T13:40:28.043Z,27.19
2018-06-10T13:41:37.811Z,27.14
2018-06-10T13:42:46.743Z,27.19
2018-06-10T13:43:56.155Z,27.21
2018-06-10T13:45:05.576Z,27.13
2018-06-10T13:46:14.338Z,27.14
2018-06-10T13:47:24.394Z,27.18
2018-06-10T13:48:33.824Z,27.17
2018-06-10T13:49:43.509Z,27.18
2018-06-10T13:50:52.681Z,27.19
2018-06-10T13:52:02.349Z,27.22
2018-06-10T13:53:11.511Z,27.19
2018-06-10T13:54:20.663Z,27.22
2018-06-10T13:55:30.336Z,27.18
2018-06-10T13:56:40.004Z,27.22
2018-06-10T13:57:48.931Z,27.13
2018-06-10T13:58:58.655Z,27.22
2018-06-10T14:00:07.971Z,27.17
2018-06-10T14:01:17.407Z,27.13
2018-06-10T14:02:26.328Z,27.18
2018-06-10T14:03:35.504Z,27.21
2018-06-10T14:04:45.184Z,27.13
2018-06-10T14:05:54.341Z,27.22
2018-06-10T14:07:04.149Z,27.24
2018-06-10T14:08:13.321Z,27.25
2018-06-10T14:09:22.226Z,27.25
2018-06-10T14:10:31.938Z,27.24
2018-06-10T14:11:41.610Z,27.24
2018-06-10T14:12:51.038Z,27.25
2018-06-10T14:14:00.213Z,27.19
2018-06-10T14:15:10.214Z,27.22
2018-06-10T14:16:19.934Z,27.34
2018-06-10T14:17:29.106Z,27.22
2018-06-10T14:18:38.529Z,27.27
2018-06-10T14:19:48.047Z,27.21
2018-06-10T14:20:57.819Z,27.25
2018-06-10T14:22:07.967Z,27.27
2018-06-10T14:23:17.579Z,27.25
2018-06-10T14:24:26.854Z,27.25
2018-06-10T14:25:36.269Z,27.27
2018-06-10T14:26:45.682Z,27.24
2018-06-10T14:27:54.854Z,27.22
2018-06-10T14:29:04.013Z,27.25
2018-06-10T14:30:13.444Z,27.25
2018-06-10T14:31:22.985Z,27.29
2018-06-10T14:32:32.671Z,27.27
2018-06-10T14:33:42.338Z,27.21
2018-06-10T14:34:51.784Z,27.28
2018-06-10T14:36:01.220Z,27.34
2018-06-10T14:37:10.381Z,27.34
2018-06-10T14:38:20.116Z,27.22
2018-06-10T14:39:29.779Z,27.22
2018-06-10T14:40:39.716Z,27.29
2018-06-10T14:41:49.374Z,27.28
2018-06-10T14:42:59.057Z,27.25
2018-06-10T14:44:08.484Z,27.25
2018-06-10T14:45:17.982Z,27.19
2018-06-10T14:46:27.945Z,27.36
2018-06-10T14:47:37.640Z,27.37
2018-06-10T14:48:47.089Z,27.21
2018-06-10T14:49:56.262Z,27.34
2018-06-10T14:51:05.685Z,27.31
2018-06-10T14:52:15.163Z,27.36
2018-06-10T14:53:24.832Z,27.34
2018-06-10T14:54:34.042Z,27.32
2018-06-10T14:55:43.201Z,27.37
2018-06-10T14:56:52.396Z,27.39
2018-06-10T14:58:01.588Z,27.36